Time;durP1;ratioP1;P1;durP2;ratioP2;P2;SDS_P1;SDS_P2;PMS_P1;PMS_P2;Temp;Humidity;BMP_temperature;BMP_pressure;BME280_temperature;BME280_humidity;BME280_pressure;Samples;Min_cycle;Max_cycle;Signal;HPM_P1;HPM_P2
2022/10/24 08:17:25;;;;;;;4.85;2.13;;;17.00;99.90;;;;;;5526833;23;20079;-83
2022/10/24 08:19:52;;;;;;;9.30;2.50;;;17.00;99.90;;;;;;4909460;29;20049;-81
2022/10/24 08:22:19;;;;;;;7.00;2.10;;;17.10;99.90;;;;;;4908405;29;20079;-84
2022/10/24 08:24:50;;;;;;;8.48;2.30;;;17.10;99.90;;;;;;4908219;29;20044;-83
2022/10/24 08:27:27;;;;;;;7.82;1.60;;;17.00;99.90;;;;;;4891661;29;20069;-83
2022/10/24 08:30:04;;;;;;;8.90;2.50;;;17.10;99.90;;;;;;4894694;29;20064;-84
2022/10/24 08:32:30;;;;;;;6.50;2.33;;;17.10;99.90;;;;;;4897021;29;20067;-81
2022/10/24 08:34:57;;;;;;;5.55;1.80;;;17.10;99.90;;;;;;4895908;29;20092;-83
2022/10/24 08:37:24;;;;;;;4.78;2.25;;;17.00;99.90;;;;;;4890747;29;20511;-84
2022/10/24 08:39:54;;;;;;;8.68;1.80;;;17.00;99.90;;;;;;4890176;29;20135;-81
2022/10/24 08:42:30;;;;;;;6.47;1.73;;;17.00;99.90;;;;;;4891817;29;20071;-84
2022/10/24 08:44:56;;;;;;;3.47;1.17;;;16.90;99.90;;;;;;4884558;29;20064;-82
2022/10/24 08:47:45;;;;;;;4.97;1.65;;;16.90;99.90;;;;;;4889732;29;20056;-82
2022/10/24 08:50:29;;;;;;;7.57;1.80;;;17.00;99.90;;;;;;4888995;29;20148;-81
2022/10/24 08:53:30;;;;;;;7.85;1.30;;;16.80;99.90;;;;;;4888168;29;20063;-81
2022/10/24 08:55:59;;;;;;;6.20;1.45;;;16.80;99.90;;;;;;4883592;29;20056;-81
2022/10/24 08:58:40;;;;;;;5.30;1.52;;;16.80;99.90;;;;;;4883688;29;20063;-80
2022/10/24 09:01:15;;;;;;;6.00;1.77;;;16.80;99.90;;;;;;4870855;29;20061;-81
2022/10/24 09:03:49;;;;;;;5.05;1.30;;;16.80;99.90;;;;;;4887533;29;20052;-82
2022/10/24 09:06:25;;;;;;;7.10;1.77;;;16.80;99.90;;;;;;4885825;29;20088;-81
2022/10/24 09:08:53;;;;;;;5.70;1.73;;;16.80;99.90;;;;;;4883941;29;20061;-80
2022/10/24 09:11:46;;;;;;;6.13;2.05;;;16.80;99.90;;;;;;4884473;29;20049;-80
2022/10/24 09:14:22;;;;;;;3.50;1.60;;;16.70;99.90;;;;;;4881261;29;20060;-81
2022/10/24 09:16:52;;;;;;;4.72;1.65;;;16.60;99.90;;;;;;4883627;29;20064;-80
2022/10/24 09:19:23;;;;;;;;;;;16.50;99.90;;;;;;4884199;29;20506;-81
2022/10/24 09:21:53;;;;;;;9.73;1.95;;;16.50;99.90;;;;;;4883326;29;19924;-81
2022/10/24 09:24:34;;;;;;;6.28;1.48;;;16.50;99.90;;;;;;4883090;29;20049;-81
2022/10/24 09:27:04;;;;;;;5.88;1.52;;;16.50;99.90;;;;;;4879002;29;20054;-80
2022/10/24 09:29:32;;;;;;;9.02;2.15;;;16.50;99.90;;;;;;4881869;29;20177;-80
2022/10/24 09:32:00;;;;;;;8.80;1.70;;;16.50;99.90;;;;;;4893104;29;20056;-78
2022/10/24 09:34:26;;;;;;;8.68;1.80;;;16.50;99.90;;;;;;4897226;29;20182;-80
2022/10/24 09:36:53;;;;;;;5.05;1.55;;;16.40;99.90;;;;;;4916235;29;20112;-80
2022/10/24 09:39:28;;;;;;;7.28;2.40;;;16.40;99.90;;;;;;4908860;29;20044;-79
2022/10/24 09:41:56;;;;;;;7.82;1.95;;;16.40;99.90;;;;;;4914621;29;20036;-80
2022/10/24 09:44:36;;;;;;;4.82;1.95;;;16.30;99.90;;;;;;4911721;29;20048;-79
2022/10/24 09:47:08;;;;;;;5.50;1.50;;;16.30;99.90;;;;;;4897050;29;20086;-81
2022/10/24 09:49:39;;;;;;;7.32;1.90;;;16.20;99.90;;;;;;4887642;29;20711;-80
2022/10/24 09:52:18;;;;;;;6.28;1.40;;;16.20;99.90;;;;;;4879317;29;20057;-81
2022/10/24 09:55:01;;;;;;;6.38;1.65;;;16.20;99.90;;;;;;4878392;29;20057;-81
2022/10/24 09:57:37;;;;;;;5.15;2.42;;;16.10;99.90;;;;;;4893093;29;20506;-79
2022/10/24 10:00:05;;;;;;;2.35;1.10;;;16.10;99.90;;;;;;4896563;29;20057;-81
2022/10/24 10:02:33;;;;;;;5.22;1.70;;;16.10;99.90;;;;;;4892942;29;20053;-81
2022/10/24 10:05:03;;;;;;;3.92;1.67;;;16.20;99.90;;;;;;4896920;29;20518;-81
2022/10/24 10:07:35;;;;;;;4.90;1.60;;;16.20;99.90;;;;;;4897064;29;20048;-80
2022/10/24 10:10:25;;;;;;;6.32;1.45;;;16.30;99.90;;;;;;4893138;29;20623;-81
2022/10/24 10:13:03;;;;;;;3.83;0.95;;;16.30;99.90;;;;;;4888248;29;20063;-79
2022/10/24 10:15:44;;;;;;;5.15;1.70;;;16.30;99.90;;;;;;4890491;29;20056;-81
2022/10/24 10:18:31;;;;;;;2.22;1.17;;;16.30;99.90;;;;;;4892300;29;20057;-80
2022/10/24 10:21:10;;;;;;;5.25;1.10;;;16.30;99.90;;;;;;4889443;29;20116;-80
2022/10/24 10:23:47;;;;;;;6.57;1.10;;;16.30;99.90;;;;;;4903178;29;20049;-80
2022/10/24 10:26:17;;;;;;;3.85;1.50;;;16.20;99.90;;;;;;4887472;29;20065;-81
2022/10/24 10:28:52;;;;;;;4.00;1.52;;;16.40;99.90;;;;;;4888796;29;20532;-79
2022/10/24 10:31:23;;;;;;;6.22;1.55;;;16.40;99.90;;;;;;4885496;29;20049;-81
2022/10/24 10:34:01;;;;;;;4.35;0.98;;;16.50;99.90;;;;;;4884156;29;20057;-81
2022/10/24 10:36:48;;;;;;;2.80;1.05;;;16.50;99.90;;;;;;4883579;29;20499;-81
2022/10/24 10:40:00;;;;;;;3.78;1.00;;;16.50;99.90;;;;;;4886978;29;20117;-81
2022/10/24 10:42:46;;;;;;;3.17;0.95;;;16.50;99.90;;;;;;4884491;29;20113;-81
2022/10/24 10:45:43;;;;;;;4.47;1.45;;;16.50;99.90;;;;;;4899412;29;20082;-82
2022/10/24 10:48:19;;;;;;;4.22;0.90;;;16.50;99.90;;;;;;4880070;29;20061;-81
2022/10/24 10:51:19;;;;;;;2.70;0.88;;;16.60;99.90;;;;;;4886820;29;20525;-80
2022/10/24 10:54:22;;;;;;;3.22;1.05;;;16.70;99.90;;;;;;4885604;29;20080;-81
2022/10/24 10:56:55;;;;;;;1.70;0.73;;;16.80;99.90;;;;;;4896359;29;20068;-81
2022/10/24 10:59:58;;;;;;;3.08;1.58;;;16.90;99.90;;;;;;4883018;29;20049;-81
2022/10/24 11:02:25;;;;;;;2.42;1.05;;;16.90;99.90;;;;;;4887831;29;20052;-81
2022/10/24 11:05:07;;;;;;;1.88;1.02;;;17.00;99.90;;;;;;4883637;29;20087;-80
2022/10/24 11:07:48;;;;;;;3.85;1.48;;;17.10;99.90;;;;;;4883108;29;20076;-81
2022/10/24 11:10:23;;;;;;;6.50;1.10;;;17.20;99.90;;;;;;4886248;29;20132;-80
2022/10/24 11:12:52;;;;;;;1.58;0.70;;;17.30;99.90;;;;;;4890856;29;20067;-83
2022/10/24 11:15:39;;;;;;;3.00;0.95;;;17.30;99.90;;;;;;4882506;29;20060;-80
2022/10/24 11:18:14;;;;;;;2.63;0.80;;;17.40;99.90;;;;;;4877704;29;20060;-81
2022/10/24 11:21:03;;;;;;;1.90;0.70;;;17.50;99.90;;;;;;4883625;29;20073;-81
2022/10/24 11:23:56;;;;;;;1.15;0.80;;;17.60;99.90;;;;;;4871837;29;20113;-80
2022/10/24 11:26:35;;;;;;;3.05;0.90;;;17.70;99.90;;;;;;4887201;29;20418;-78
2022/10/24 11:29:41;;;;;;;2.42;0.82;;;17.80;99.90;;;;;;4897827;29;20070;-80
2022/10/24 11:32:18;;;;;;;2.33;0.90;;;17.90;99.90;;;;;;4896527;29;20072;-83
2022/10/24 11:34:51;;;;;;;2.33;0.88;;;17.80;99.90;;;;;;4882690;29;20072;-80
2022/10/24 11:37:27;;;;;;;2.22;0.65;;;17.90;99.90;;;;;;4885928;29;20065;-78
2022/10/24 11:40:03;;;;;;;4.13;0.60;;;17.90;99.90;;;;;;4883480;29;20094;-79
2022/10/24 11:42:39;;;;;;;0.90;0.60;;;18.00;99.90;;;;;;4894047;29;20064;-80
2022/10/24 11:45:20;;;;;;;1.83;0.60;;;18.00;99.90;;;;;;4897100;29;20048;-83
2022/10/24 11:48:13;;;;;;;4.50;0.80;;;18.00;99.90;;;;;;4889565;29;20071;-79
2022/10/24 11:50:52;;;;;;;1.75;0.50;;;18.10;99.90;;;;;;4892640;29;20059;-80
2022/10/24 11:53:44;;;;;;;1.80;0.60;;;18.20;99.90;;;;;;4906322;29;20053;-79
2022/10/24 11:56:14;;;;;;;1.92;0.60;;;18.20;99.90;;;;;;4895265;29;20205;-82
2022/10/24 11:59:05;;;;;;;3.70;0.80;;;18.30;99.90;;;;;;4895002;29;20514;-82
2022/10/24 12:01:46;;;;;;;1.85;0.65;;;18.30;99.90;;;;;;4894196;29;20067;-80
2022/10/24 12:04:34;;;;;;;6.95;0.70;;;18.30;99.90;;;;;;4894004;29;20055;-82
2022/10/24 12:07:26;;;;;;;2.33;0.80;;;18.40;99.90;;;;;;4893174;29;20053;-81
2022/10/24 12:10:08;;;;;;;5.22;1.08;;;18.50;99.90;;;;;;4857976;29;20174;-82
2022/10/24 12:12:55;;;;;;;3.75;0.80;;;18.60;99.90;;;;;;4875176;29;20048;-81
2022/10/24 12:15:29;;;;;;;1.70;0.88;;;18.60;99.90;;;;;;4890112;29;20057;-82
2022/10/24 12:17:58;;;;;;;2.92;1.08;;;18.60;99.90;;;;;;4885527;29;20116;-82
2022/10/24 12:20:27;;;;;;;5.15;1.15;;;18.60;99.90;;;;;;4890443;29;20079;-81
2022/10/24 12:22:56;;;;;;;2.58;1.00;;;18.60;99.90;;;;;;4888437;29;20559;-82
2022/10/24 12:25:35;;;;;;;3.70;1.27;;;18.60;99.90;;;;;;4885169;29;20068;-80
2022/10/24 12:30:38;;;;;;;4.75;1.55;;;18.70;99.90;;;;;;4917500;29;20569;-79
2022/10/24 12:33:22;;;;;;;2.97;0.90;;;18.70;99.90;;;;;;4923959;29;20056;-84
2022/10/24 12:35:51;;;;;;;2.35;1.35;;;18.70;99.90;;;;;;4923479;29;20048;-83
2022/10/24 12:38:18;;;;;;;3.78;1.20;;;18.80;99.90;;;;;;4921127;29;20052;-84
2022/10/24 12:40:54;;;;;;;4.22;1.23;;;19.00;99.90;;;;;;4893351;29;20053;-84
2022/10/24 12:43:31;;;;;;;6.35;1.50;;;18.90;99.90;;;;;;4891745;29;20085;-84
2022/10/24 12:46:03;;;;;;;2.30;1.13;;;18.90;99.90;;;;;;4882530;29;20507;-84
2022/10/24 12:48:41;;;;;;;2.47;1.20;;;19.00;99.90;;;;;;4887736;29;20063;-84
2022/10/24 12:51:30;;;;;;;4.72;2.03;;;19.00;99.90;;;;;;4890076;29;20511;-84
2022/10/24 12:54:12;;;;;;;4.03;1.20;;;19.00;99.90;;;;;;4907282;29;20488;-84
2022/10/24 12:57:01;;;;;;;4.28;1.13;;;19.00;99.90;;;;;;4905283;29;20053;-85
2022/10/24 12:59:43;;;;;;;2.97;1.13;;;19.00;99.90;;;;;;4875520;29;20056;-83
2022/10/24 13:02:10;;;;;;;3.90;1.13;;;19.00;99.90;;;;;;4909796;29;20053;-83
2022/10/24 13:04:49;;;;;;;4.88;1.52;;;19.00;99.90;;;;;;4900831;29;20053;-83
2022/10/24 13:07:21;;;;;;;7.78;1.65;;;19.00;99.90;;;;;;4903511;29;20056;-81
2022/10/24 13:10:06;;;;;;;3.40;1.65;;;19.00;99.90;;;;;;4899818;29;20049;-82
2022/10/24 13:12:42;;;;;;;7.10;2.58;;;18.90;99.90;;;;;;4897237;29;20044;-81
2022/10/24 13:15:36;;;;;;;4.40;1.55;;;18.90;99.90;;;;;;4899220;29;20083;-82
2022/10/24 13:18:21;;;;;;;9.23;1.67;;;18.90;99.90;;;;;;4892593;29;20053;-83
2022/10/24 13:21:04;;;;;;;3.17;1.70;;;18.70;99.90;;;;;;4889137;29;20049;-83
2022/10/24 13:23:32;;;;;;;6.10;1.90;;;18.70;99.90;;;;;;4894541;29;20045;-83
2022/10/24 13:25:59;;;;;;;7.68;1.63;;;18.70;99.90;;;;;;4895673;29;20048;-81
2022/10/24 13:28:27;;;;;;;5.70;1.63;;;18.70;99.90;;;;;;4890982;29;20076;-83
2022/10/24 13:31:13;;;;;;;2.85;1.48;;;18.70;99.90;;;;;;4895230;29;20053;-82
2022/10/24 13:33:44;;;;;;;4.03;1.58;;;18.70;99.90;;;;;;4879069;29;20056;-83
2022/10/24 13:36:17;;;;;;;4.28;1.75;;;18.60;99.90;;;;;;4897294;29;20130;-83
2022/10/24 13:39:02;;;;;;;11.00;2.05;;;18.50;99.90;;;;;;4889235;29;20055;-83
2022/10/24 13:41:36;;;;;;;6.50;2.03;;;18.60;99.90;;;;;;4890645;29;20056;-83
2022/10/24 13:44:20;;;;;;;8.43;1.92;;;18.60;99.90;;;;;;4886506;29;20041;-82
2022/10/24 13:46:57;;;;;;;5.15;1.98;;;18.60;99.90;;;;;;4893185;29;20049;-82
2022/10/24 13:49:38;;;;;;;7.93;1.98;;;18.60;99.90;;;;;;4889837;29;20430;-83
2022/10/24 13:52:17;;;;;;;25.27;2.15;;;18.70;99.90;;;;;;4893687;29;20053;-83
2022/10/24 13:54:47;;;;;;;6.68;1.85;;;18.60;99.90;;;;;;4891357;29;20045;-84
2022/10/24 13:57:25;;;;;;;5.00;1.85;;;18.70;99.90;;;;;;4891102;29;20069;-80
2022/10/24 13:59:58;;;;;;;9.40;2.00;;;18.80;99.90;;;;;;4892818;29;20049;-80
2022/10/24 14:02:29;;;;;;;5.78;1.52;;;18.80;99.90;;;;;;4893002;29;20063;-82
2022/10/24 14:04:59;;;;;;;6.97;1.40;;;18.80;99.90;;;;;;4895273;29;20055;-83
2022/10/24 14:07:29;;;;;;;5.20;1.58;;;18.80;99.90;;;;;;4888394;29;20059;-83
2022/10/24 14:10:09;;;;;;;5.50;1.23;;;18.80;99.90;;;;;;4889228;29;20174;-82
2022/10/24 14:12:39;;;;;;;9.00;1.73;;;18.80;99.90;;;;;;4889824;29;20057;-83
2022/10/24 14:15:18;;;;;;;5.67;1.20;;;18.80;99.90;;;;;;4894010;29;20053;-83
2022/10/24 14:18:04;;;;;;;5.68;1.58;;;18.70;99.90;;;;;;4890014;29;20068;-81
2022/10/24 14:20:35;;;;;;;8.25;1.77;;;18.70;99.90;;;;;;4883532;29;20049;-83
2022/10/24 14:23:14;;;;;;;4.35;1.60;;;18.70;99.90;;;;;;4891332;29;20044;-81
2022/10/24 14:25:40;;;;;;;8.43;1.33;;;18.70;99.90;;;;;;4891948;29;20055;-83
2022/10/24 14:28:16;;;;;;;4.97;1.25;;;18.80;99.90;;;;;;4895491;29;20049;-83
2022/10/24 14:31:00;;;;;;;3.90;1.52;;;18.80;99.90;;;;;;4886774;29;20064;-81
2022/10/24 14:33:29;;;;;;;5.45;1.45;;;18.80;99.90;;;;;;4890843;29;20117;-84
2022/10/24 14:35:58;;;;;;;2.13;1.25;;;18.80;99.90;;;;;;4892156;29;20053;-84
2022/10/24 14:38:27;;;;;;;3.63;1.40;;;18.80;99.90;;;;;;4897574;29;20625;-83
2022/10/24 14:40:55;;;;;;;3.45;1.08;;;18.70;99.90;;;;;;4891823;29;20075;-83
2022/10/24 14:43:36;;;;;;;;;;;18.60;99.90;;;;;;4888883;29;20653;-84
2022/10/24 14:46:10;;;;;;;2.40;1.00;;;18.70;99.90;;;;;;4891330;29;19963;-82
2022/10/24 14:48:42;;;;;;;5.10;1.70;;;18.60;99.90;;;;;;4895049;29;20055;-83
2022/10/24 14:51:17;;;;;;;2.83;0.75;;;18.70;99.90;;;;;;4897541;29;20067;-84
2022/10/24 14:53:44;;;;;;;3.38;1.05;;;18.70;99.90;;;;;;4893952;29;20061;-83
2022/10/24 14:56:35;;;;;;;4.00;1.50;;;18.70;99.90;;;;;;4893389;29;20063;-84
2022/10/24 14:59:05;;;;;;;4.10;1.25;;;18.60;99.90;;;;;;4881877;29;20065;-83
2022/10/24 15:01:32;;;;;;;2.47;0.70;;;18.50;99.90;;;;;;4892937;29;20065;-81
2022/10/24 15:04:01;;;;;;;2.58;1.23;;;18.40;99.90;;;;;;4894347;29;20048;-81
2022/10/24 15:06:42;;;;;;;2.40;1.08;;;18.40;99.90;;;;;;4891393;29;20052;-82
2022/10/24 15:09:11;;;;;;;7.88;2.75;;;18.40;99.90;;;;;;4896885;29;20052;-81
2022/10/24 15:11:44;;;;;;;3.40;0.90;;;18.40;99.90;;;;;;4888621;29;20053;-83
2022/10/24 15:14:36;;;;;;;2.38;1.30;;;18.40;99.90;;;;;;4890008;29;20060;-82
2022/10/24 15:17:29;;;;;;;2.95;0.80;;;18.50;99.90;;;;;;4889278;29;20060;-81
2022/10/24 15:20:01;;;;;;;4.35;1.65;;;18.50;99.90;;;;;;4887283;29;20105;-82
2022/10/24 15:22:30;;;;;;;3.15;1.10;;;18.50;99.90;;;;;;4892508;29;20052;-82
2022/10/24 15:25:00;;;;;;;3.38;1.48;;;18.40;99.90;;;;;;4891452;29;20534;-83
2022/10/24 15:27:38;;;;;;;2.75;0.88;;;18.40;99.90;;;;;;4893101;29;20048;-83
2022/10/24 15:30:18;;;;;;;2.40;1.00;;;18.30;99.90;;;;;;4890303;29;20057;-83
2022/10/24 15:32:47;;;;;;;11.68;1.25;;;18.20;99.90;;;;;;4883166;29;20420;-82
2022/10/24 15:35:15;;;;;;;4.68;0.80;;;18.20;99.90;;;;;;4885392;29;20053;-82
2022/10/24 15:38:16;;;;;;;3.40;0.90;;;18.10;99.90;;;;;;4890226;29;20053;-83
2022/10/24 15:40:46;;;;;;;3.45;0.98;;;18.20;99.90;;;;;;4888327;29;20052;-84
2022/10/24 15:43:17;;;;;;;4.55;1.10;;;18.10;99.90;;;;;;4886948;29;20511;-82
2022/10/24 15:45:44;;;;;;;2.72;0.63;;;18.10;99.90;;;;;;4885498;29;20128;-80
2022/10/24 15:48:11;;;;;;;7.10;0.95;;;18.10;99.90;;;;;;4888213;29;20044;-82
2022/10/24 15:50:42;;;;;;;1.55;0.90;;;18.10;99.90;;;;;;4892034;29;20128;-83
2022/10/24 15:53:15;;;;;;;4.03;0.93;;;18.00;99.90;;;;;;4890441;29;20060;-83
2022/10/24 15:55:42;;;;;;;3.63;0.80;;;17.90;99.90;;;;;;4886902;29;20053;-82
2022/10/24 15:58:13;;;;;;;4.00;0.93;;;17.90;99.90;;;;;;4886733;29;20045;-83
2022/10/24 16:00:40;;;;;;;3.65;0.80;;;17.90;99.90;;;;;;4888986;29;20336;-83
2022/10/24 16:03:13;;;;;;;2.80;0.90;;;17.80;99.90;;;;;;4891500;29;20135;-83
2022/10/24 16:05:43;;;;;;;5.13;2.08;;;17.80;99.90;;;;;;4879757;29;21103;-83
2022/10/24 16:08:13;;;;;;;4.60;0.73;;;17.70;99.90;;;;;;4875315;29;20060;-83
2022/10/24 16:10:41;;;;;;;2.63;0.65;;;17.70;99.90;;;;;;4892795;29;20072;-85
2022/10/24 16:13:11;;;;;;;2.95;0.85;;;17.60;99.90;;;;;;4889584;29;20060;-84
2022/10/24 16:15:38;;;;;;;3.10;0.70;;;17.60;99.90;;;;;;4885605;29;20048;-83
2022/10/24 16:18:06;;;;;;;1.35;0.77;;;17.60;99.90;;;;;;4885322;29;20064;-84
2022/10/24 16:20:33;;;;;;;2.38;0.60;;;17.50;99.90;;;;;;4892535;29;20064;-83
2022/10/24 16:23:00;;;;;;;2.67;0.90;;;17.50;99.90;;;;;;4888858;29;20045;-84
2022/10/24 16:25:30;;;;;;;4.75;0.80;;;17.50;99.90;;;;;;4881904;29;20064;-85
2022/10/24 16:27:56;;;;;;;2.92;0.68;;;17.50;99.90;;;;;;4884029;29;20045;-84
2022/10/24 16:30:26;;;;;;;2.35;0.40;;;17.40;99.90;;;;;;4880777;29;20056;-84
2022/10/24 16:32:53;;;;;;;4.20;0.60;;;17.40;99.90;;;;;;4890566;29;20127;-84
2022/10/24 16:35:24;;;;;;;1.05;0.40;;;17.40;99.90;;;;;;4882995;29;20053;-84
2022/10/24 16:37:53;;;;;;;6.95;2.17;;;17.40;99.90;;;;;;4886707;29;20526;-84
2022/10/24 16:40:21;;;;;;;4.07;1.10;;;17.30;99.90;;;;;;4874055;29;20050;-84
2022/10/24 16:42:49;;;;;;;5.00;1.08;;;17.30;99.90;;;;;;4889190;29;20045;-83
2022/10/24 16:45:16;;;;;;;2.47;0.70;;;17.30;99.90;;;;;;4882614;29;20057;-84
2022/10/24 16:47:43;;;;;;;4.90;0.80;;;17.20;99.90;;;;;;4891146;29;20054;-84
2022/10/24 16:50:23;;;;;;;2.47;0.90;;;17.20;99.90;;;;;;4893013;29;20033;-84
2022/10/24 16:53:01;;;;;;;1.60;0.57;;;17.10;99.90;;;;;;4895724;29;20057;-83
2022/10/24 16:55:29;;;;;;;0.95;0.70;;;17.10;99.90;;;;;;4887370;29;20053;-83
2022/10/24 16:57:56;;;;;;;1.63;0.85;;;17.10;99.90;;;;;;4883656;29;20049;-83
2022/10/24 17:00:23;;;;;;;2.75;1.02;;;17.00;99.90;;;;;;4882522;29;20125;-83
2022/10/24 17:02:53;;;;;;;1.40;0.60;;;17.00;99.90;;;;;;4885070;29;20045;-83
2022/10/24 17:05:23;;;;;;;3.53;0.90;;;17.00;99.90;;;;;;4888605;29;20048;-84
2022/10/24 17:07:50;;;;;;;3.30;0.70;;;16.90;99.90;;;;;;4890346;29;20068;-83
2022/10/24 17:10:17;;;;;;;1.85;0.70;;;16.90;99.90;;;;;;4878812;29;20152;-83
2022/10/24 17:12:51;;;;;;;3.42;0.55;;;16.80;99.90;;;;;;4877430;29;20071;-83
2022/10/24 17:15:18;;;;;;;2.10;0.70;;;16.80;99.90;;;;;;4886263;29;20053;-85
2022/10/24 17:17:48;;;;;;;3.55;0.70;;;16.80;99.90;;;;;;4886804;29;20101;-85
2022/10/24 17:20:16;;;;;;;4.18;0.70;;;16.80;99.90;;;;;;4886666;29;20086;-83
2022/10/24 17:22:45;;;;;;;4.82;0.57;;;16.70;99.90;;;;;;4882857;29;20053;-83
2022/10/24 17:25:18;;;;;;;2.65;0.80;;;16.70;99.90;;;;;;4889684;29;20518;-83
2022/10/24 17:27:45;;;;;;;2.33;0.65;;;16.70;99.90;;;;;;4877637;29;20053;-83
2022/10/24 17:30:15;;;;;;;5.22;0.98;;;16.70;99.90;;;;;;4881471;29;20080;-83
2022/10/24 17:32:42;;;;;;;4.32;0.77;;;16.60;99.90;;;;;;4884654;29;20124;-83
2022/10/24 17:35:12;;;;;;;3.15;1.30;;;16.60;99.90;;;;;;4889307;29;20055;-84
2022/10/24 17:37:44;;;;;;;2.22;0.65;;;16.60;99.90;;;;;;4886897;29;20060;-83
2022/10/24 17:40:14;;;;;;;3.92;0.98;;;16.70;99.90;;;;;;4884150;29;20058;-83
2022/10/24 17:42:41;;;;;;;;;;;16.70;99.90;;;;;;4883586;29;20513;-83
2022/10/24 17:45:16;;;;;;;5.25;0.93;;;16.70;99.90;;;;;;4879113;29;20460;-83
2022/10/24 17:47:44;;;;;;;5.07;0.82;;;16.70;99.90;;;;;;4887970;29;20040;-83
2022/10/24 17:50:13;;;;;;;1.65;0.80;;;16.70;99.90;;;;;;4888269;29;20060;-82
2022/10/24 17:52:41;;;;;;;1.20;0.45;;;16.70;99.90;;;;;;4886062;29;20127;-80
2022/10/24 17:55:21;;;;;;;1.58;0.55;;;16.70;99.90;;;;;;4881842;29;20506;-82
2022/10/24 17:58:08;;;;;;;3.22;0.77;;;16.70;99.90;;;;;;4889487;29;20060;-81
2022/10/24 18:00:35;;;;;;;0.88;0.52;;;16.70;99.90;;;;;;4885913;29;20060;-82
2022/10/24 18:03:02;;;;;;;2.63;0.90;;;16.70;99.90;;;;;;4887075;29;20052;-81
2022/10/24 18:05:29;;;;;;;2.33;0.80;;;16.70;99.90;;;;;;4871533;29;20049;-80
2022/10/24 18:07:56;;;;;;;2.40;0.40;;;16.70;99.90;;;;;;4890064;29;20415;-82
2022/10/24 18:10:23;;;;;;;2.17;0.70;;;16.70;99.90;;;;;;4890698;29;20116;-80
2022/10/24 18:12:50;;;;;;;1.25;0.50;;;16.60;99.90;;;;;;4889718;29;20049;-83
2022/10/24 18:15:20;;;;;;;1.17;0.70;;;16.70;99.90;;;;;;4881521;29;20561;-80
2022/10/24 18:17:47;;;;;;;2.70;1.38;;;16.70;99.90;;;;;;4883995;29;20464;-81
2022/10/24 18:20:15;;;;;;;2.17;1.52;;;16.70;99.90;;;;;;4886380;29;20508;-80
2022/10/24 18:22:42;;;;;;;1.95;0.93;;;16.80;99.90;;;;;;4888595;29;20045;-83
2022/10/24 18:25:11;;;;;;;3.67;0.95;;;16.80;99.90;;;;;;4879311;29;20076;-83
2022/10/24 18:27:39;;;;;;;7.18;1.98;;;16.90;99.90;;;;;;4874010;29;20048;-83
2022/10/24 18:30:08;;;;;;;7.82;6.68;;;16.90;99.90;;;;;;4877470;29;20045;-83
2022/10/24 18:32:34;;;;;;;2.35;0.70;;;16.90;99.90;;;;;;4873240;29;20061;-83
2022/10/24 18:35:01;;;;;;;1.83;0.90;;;17.00;99.90;;;;;;4882470;29;20057;-84
2022/10/24 18:37:28;;;;;;;3.20;1.02;;;17.00;99.90;;;;;;4880293;29;20495;-84
2022/10/24 18:39:55;;;;;;;3.08;0.85;;;17.00;99.90;;;;;;4885508;29;20049;-83
2022/10/24 18:42:31;;;;;;;3.30;1.05;;;17.00;99.90;;;;;;4918758;23;20055;-79
2022/10/24 18:44:58;;;;;;;2.10;0.90;;;17.10;99.90;;;;;;4916994;29;20052;-80
2022/10/24 18:47:26;;;;;;;3.50;0.90;;;17.10;99.90;;;;;;4915477;29;20044;-77
2022/10/24 18:49:53;;;;;;;1.90;0.70;;;17.10;99.90;;;;;;4916125;29;20595;-79
2022/10/24 18:52:25;;;;;;;3.20;1.08;;;17.10;99.90;;;;;;4925344;29;20060;-79
2022/10/24 18:55:01;;;;;;;4.45;0.70;;;17.20;99.90;;;;;;4920499;29;20048;-78
2022/10/24 18:57:30;;;;;;;1.83;1.15;;;17.20;99.90;;;;;;4916258;29;20494;-79
2022/10/24 18:59:58;;;;;;;4.00;0.95;;;17.20;99.90;;;;;;4920404;29;20056;-79
2022/10/24 19:02:34;;;;;;;7.95;0.80;;;17.10;99.90;;;;;;4929980;29;20051;-79
2022/10/24 19:05:12;;;;;;;5.88;1.00;;;17.10;99.90;;;;;;4922985;29;20052;-79
2022/10/24 19:07:38;;;;;;;4.45;2.80;;;17.10;99.90;;;;;;4919848;29;20048;-78
2022/10/24 19:10:06;;;;;;;6.80;2.10;;;17.00;99.90;;;;;;4914854;29;20059;-79
2022/10/24 19:12:32;;;;;;;6.07;1.35;;;17.00;99.90;;;;;;4926383;29;20087;-79
2022/10/24 19:14:59;;;;;;;2.33;0.85;;;16.90;99.90;;;;;;4924479;29;20071;-78
2022/10/24 19:17:26;;;;;;;1.83;0.60;;;16.90;99.90;;;;;;4918183;29;20057;-77
2022/10/24 19:19:56;;;;;;;2.05;0.80;;;16.80;99.90;;;;;;4917413;29;20056;-78
2022/10/24 19:22:22;;;;;;;1.15;0.70;;;16.80;99.90;;;;;;4928547;29;20048;-79
2022/10/24 19:24:49;;;;;;;2.67;0.90;;;16.80;99.90;;;;;;4923789;29;20050;-78
2022/10/24 19:27:16;;;;;;;3.90;0.90;;;16.70;99.90;;;;;;4924222;29;20052;-78
